Time;durP1;ratioP1;P1;durP2;ratioP2;P2;SDS_P1;SDS_P2;PMS_P1;PMS_P2;Temp;Humidity;BMP_temperature;BMP_pressure;BME280_temperature;BME280_humidity;BME280_pressure;Samples;Min_cycle;Max_cycle;Signal;HPM_P1;HPM_P2
2022/02/17 00:00:30;;;;;;;20.20;13.27;;;;;;;6.23;100.00;99821.91;5108056;28;20039;-68
2022/02/17 00:02:56;;;;;;;21.85;13.80;;;;;;;6.20;100.00;99808.84;5108080;28;20081;-68
2022/02/17 00:05:23;;;;;;;21.98;12.98;;;;;;;6.07;100.00;99794.78;5106871;28;20036;-68
2022/02/17 00:07:49;;;;;;;19.65;13.00;;;;;;;6.18;100.00;99806.28;5107399;28;20030;-69
2022/02/17 00:10:16;;;;;;;24.00;14.40;;;;;;;6.20;100.00;99804.38;5108417;28;20084;-69
2022/02/17 00:12:41;;;;;;;19.73;13.35;;;;;;;6.21;100.00;99808.72;5108508;28;20027;-69
2022/02/17 00:15:07;;;;;;;21.27;14.38;;;;;;;6.26;100.00;99795.88;5108319;28;20035;-69
2022/02/17 00:17:33;;;;;;;19.90;12.30;;;;;;;6.25;100.00;99780.03;5108077;28;20028;-69
2022/02/17 00:19:59;;;;;;;21.55;13.65;;;;;;;6.21;100.00;99771.44;5106841;28;20047;-69
2022/02/17 00:22:25;;;;;;;18.42;12.35;;;;;;;6.27;100.00;99778.09;5108503;28;20031;-68
2022/02/17 00:24:51;;;;;;;22.00;13.07;;;;;;;6.35;100.00;99765.00;5108101;28;20024;-68
2022/02/17 00:27:17;;;;;;;20.15;13.25;;;;;;;6.34;100.00;99748.19;5108157;28;20051;-68
2022/02/17 00:29:42;;;;;;;21.35;13.55;;;;;;;6.38;100.00;99754.97;5106619;28;20037;-68
2022/02/17 00:32:08;;;;;;;20.10;13.43;;;;;;;6.31;100.00;99751.09;5107944;28;20032;-69
2022/02/17 00:34:34;;;;;;;20.77;13.02;;;;;;;6.34;100.00;99763.31;5107793;28;20030;-69
2022/02/17 00:37:00;;;;;;;17.17;12.23;;;;;;;6.30;100.00;99740.56;5108125;28;20035;-68
2022/02/17 00:39:28;;;;;;;17.80;11.73;;;;;;;6.40;100.00;99746.88;5108289;28;20061;-68
2022/02/17 00:41:53;;;;;;;17.75;12.70;;;;;;;6.41;100.00;99735.22;5107981;28;20138;-68
2022/02/17 00:44:19;;;;;;;16.60;11.57;;;;;;;6.42;100.00;99732.44;5108063;28;20110;-69
2022/02/17 00:46:45;;;;;;;18.27;12.05;;;;;;;6.48;100.00;99737.28;5105514;28;20031;-69
2022/02/17 00:49:10;;;;;;;16.80;11.63;;;;;;;6.47;100.00;99737.41;5107972;28;20392;-68
2022/02/17 00:51:36;;;;;;;16.63;10.35;;;;;;;6.40;100.00;99731.75;5107986;28;20335;-69
2022/02/17 00:54:02;;;;;;;17.27;10.75;;;;;;;6.48;100.00;99739.13;5107893;28;20023;-69
2022/02/17 00:56:27;;;;;;;17.40;10.85;;;;;;;6.45;100.00;99728.72;5106557;28;20429;-68
2022/02/17 00:58:53;;;;;;;17.02;10.95;;;;;;;6.43;100.00;99736.81;5106445;28;20027;-69
2022/02/17 01:01:18;;;;;;;15.63;10.18;;;;;;;6.43;100.00;99727.97;5107969;28;20042;-69
2022/02/17 01:03:44;;;;;;;15.30;9.77;;;;;;;6.37;100.00;99717.81;5109270;28;20058;-68
2022/02/17 01:06:10;;;;;;;17.90;10.23;;;;;;;6.47;100.00;99721.44;5110167;28;20092;-69
2022/02/17 01:08:35;;;;;;;15.00;10.02;;;;;;;6.51;100.00;99715.72;5111651;28;20027;-68
2022/02/17 01:11:01;;;;;;;17.92;10.30;;;;;;;6.54;100.00;99712.81;5109978;28;20177;-69
2022/02/17 01:13:27;;;;;;;16.10;9.60;;;;;;;6.51;100.00;99710.41;5110327;28;20027;-69
2022/02/17 01:15:53;;;;;;;17.77;10.15;;;;;;;6.50;100.00;99714.06;5111201;28;20126;-69
2022/02/17 01:18:19;;;;;;;16.25;10.38;;;;;;;6.54;100.00;99707.50;5109915;28;20077;-69
2022/02/17 01:20:46;;;;;;;16.65;9.82;;;;;;;6.59;100.00;99710.66;5111119;28;20036;-68
2022/02/17 01:23:13;;;;;;;17.05;10.85;;;;;;;6.58;100.00;99697.44;5111143;28;20079;-68
2022/02/17 01:25:38;;;;;;;16.13;10.35;;;;;;;6.62;99.60;99678.41;5109754;28;20042;-69
2022/02/17 01:28:04;;;;;;;15.52;10.55;;;;;;;6.59;99.53;99669.81;5111493;27;20032;-68
2022/02/17 01:30:29;;;;;;;16.73;11.77;;;;;;;6.45;99.78;99641.66;5111215;28;20060;-68
2022/02/17 01:32:55;;;;;;;16.58;10.20;;;;;;;6.54;99.68;99664.00;5111015;28;20035;-70
2022/02/17 01:35:20;;;;;;;16.05;11.27;;;;;;;6.56;99.59;99660.28;5109441;28;20114;-69
2022/02/17 01:37:46;;;;;;;19.75;11.32;;;;;;;6.61;99.71;99671.38;5114707;28;20084;-76
2022/02/17 01:40:13;;;;;;;17.60;11.73;;;;;;;6.60;100.00;99672.38;5114271;28;20022;-76
2022/02/17 01:42:39;;;;;;;18.05;10.45;;;;;;;6.58;99.77;99644.16;5113611;27;20059;-75
2022/02/17 01:45:07;;;;;;;15.18;11.98;;;;;;;6.61;100.00;99658.06;5114461;28;20494;-76
2022/02/17 01:47:33;;;;;;;16.95;11.85;;;;;;;6.63;100.00;99644.63;5114088;28;20031;-77
2022/02/17 01:49:58;;;;;;;16.92;11.65;;;;;;;6.62;100.00;99646.44;5114766;28;20359;-76
2022/02/17 01:52:23;;;;;;;15.70;11.77;;;;;;;6.56;100.00;99638.13;5113817;28;20031;-75
2022/02/17 01:54:49;;;;;;;19.17;12.48;;;;;;;6.56;99.86;99624.78;5114070;28;20527;-76
2022/02/17 01:57:17;;;;;;;17.55;11.25;;;;;;;6.63;99.91;99632.16;5114075;28;20483;-76
2022/02/17 01:59:44;;;;;;;15.77;10.98;;;;;;;6.61;99.78;99636.75;5113816;28;20149;-76
2022/02/17 02:02:09;;;;;;;18.02;11.90;;;;;;;6.61;99.66;99628.75;5112876;28;20062;-77
2022/02/17 02:04:35;;;;;;;17.90;11.10;;;;;;;6.65;99.55;99624.88;5114362;28;20100;-76
2022/02/17 02:07:01;;;;;;;16.58;10.70;;;;;;;6.73;99.28;99629.56;5114381;28;20028;-75
2022/02/17 02:09:27;;;;;;;18.00;11.23;;;;;;;6.64;98.85;99615.19;5114359;28;20039;-76
2022/02/17 02:11:52;;;;;;;18.00;10.60;;;;;;;6.68;99.51;99629.94;5114271;28;20145;-76
2022/02/17 02:14:18;;;;;;;14.80;10.30;;;;;;;6.55;99.44;99601.81;5114209;28;20036;-75
2022/02/17 02:16:45;;;;;;;15.70;10.70;;;;;;;6.65;99.41;99616.88;5113959;28;20466;-76
2022/02/17 02:19:11;;;;;;;14.80;9.85;;;;;;;6.66;99.70;99615.91;5114341;28;20102;-78
2022/02/17 02:21:37;;;;;;;16.98;11.10;;;;;;;6.66;99.19;99613.25;5113040;28;20024;-77
2022/02/17 02:24:04;;;;;;;14.50;9.80;;;;;;;6.65;99.88;99608.88;5113037;28;20471;-76
2022/02/17 02:26:30;;;;;;;14.02;9.93;;;;;;;6.62;99.46;99582.50;5113999;28;20068;-77
2022/02/17 02:28:56;;;;;;;16.38;10.13;;;;;;;6.73;98.76;99590.44;5114386;28;20027;-77
2022/02/17 02:31:22;;;;;;;13.95;10.27;;;;;;;6.77;98.66;99586.56;5114089;28;20027;-75
2022/02/17 02:33:48;;;;;;;15.68;10.43;;;;;;;6.63;98.58;99576.22;5113284;28;20052;-76
2022/02/17 02:36:13;;;;;;;15.52;9.45;;;;;;;6.76;98.79;99587.53;5113920;28;20104;-76
2022/02/17 02:38:39;;;;;;;15.30;9.82;;;;;;;6.74;99.04;99578.81;5113997;28;20161;-77
2022/02/17 02:41:05;;;;;;;13.82;9.35;;;;;;;6.76;98.72;99578.69;5114188;28;20030;-77
2022/02/17 02:43:31;;;;;;;12.38;8.98;;;;;;;6.82;98.54;99583.50;5114165;28;20047;-76
2022/02/17 02:45:56;;;;;;;15.48;10.15;;;;;;;6.77;98.44;99586.56;5114272;28;20039;-77
2022/02/17 02:48:21;;;;;;;17.67;10.23;;;;;;;6.73;98.13;99566.47;5114172;28;20084;-76
2022/02/17 02:50:47;;;;;;;14.63;9.98;;;;;;;6.86;98.58;99588.44;5113956;28;20027;-77
2022/02/17 02:53:17;;;;;;;14.60;10.02;;;;;;;6.86;98.46;99596.44;5114205;28;20031;-78
2022/02/17 02:55:45;;;;;;;14.93;9.50;;;;;;;6.85;97.90;99597.44;5109082;28;20019;-77
2022/02/17 02:58:12;;;;;;;17.42;10.63;;;;;;;6.88;98.01;99598.97;5113914;28;20107;-77
2022/02/17 03:00:39;;;;;;;15.57;9.63;;;;;;;6.75;98.33;99577.00;5113660;28;20371;-79
2022/02/17 03:03:04;;;;;;;16.05;10.30;;;;;;;6.81;98.82;99585.31;5113879;28;20431;-76
2022/02/17 03:05:30;;;;;;;18.85;10.20;;;;;;;6.77;98.72;99585.69;5113644;28;20062;-78
2022/02/17 03:07:55;;;;;;;15.55;9.88;;;;;;;6.89;98.90;99596.19;5113658;28;20031;-76
2022/02/17 03:10:21;;;;;;;15.23;10.15;;;;;;;6.89;98.11;99590.00;5112091;28;20098;-68
2022/02/17 03:12:47;;;;;;;18.98;10.18;;;;;;;6.82;98.68;99584.34;5109211;28;20125;-69
2022/02/17 03:15:13;;;;;;;16.90;11.18;;;;;;;6.89;99.10;99580.19;5106456;28;20046;-69
2022/02/17 03:17:38;;;;;;;16.35;11.27;;;;;;;6.84;98.59;99561.06;5109065;28;20432;-69
2022/02/17 03:20:08;;;;;;;16.92;10.75;;;;;;;6.92;98.07;99569.28;5108901;28;20735;-68
2022/02/17 03:22:38;;;;;;;15.07;10.40;;;;;;;6.93;98.87;99570.09;5108958;28;20023;-68
2022/02/17 03:25:05;;;;;;;17.17;11.10;;;;;;;6.95;98.73;99565.50;5108992;28;20072;-69
2022/02/17 03:27:31;;;;;;;14.35;10.38;;;;;;;6.90;98.21;99563.22;5108262;28;20487;-69
2022/02/17 03:29:56;;;;;;;16.55;10.60;;;;;;;6.85;98.60;99544.13;5108614;28;20064;-68
2022/02/17 03:32:22;;;;;;;13.95;10.35;;;;;;;6.97;98.57;99545.72;5108577;28;20036;-68
2022/02/17 03:34:47;;;;;;;14.75;10.10;;;;;;;6.94;97.96;99540.66;5108852;28;20479;-69
2022/02/17 03:37:13;;;;;;;12.95;9.15;;;;;;;6.91;98.41;99537.44;5108765;28;20422;-68
2022/02/17 03:39:38;;;;;;;14.32;10.32;;;;;;;6.93;98.71;99530.97;5107179;28;20019;-69
2022/02/17 03:42:04;;;;;;;15.18;10.38;;;;;;;6.96;98.90;99513.88;5108689;28;20043;-68
2022/02/17 03:44:30;;;;;;;19.88;10.98;;;;;;;6.97;98.29;99513.75;5108882;27;20066;-69
2022/02/17 03:46:55;;;;;;;16.98;10.90;;;;;;;6.91;98.86;99503.59;5108478;28;20062;-69
2022/02/17 03:49:21;;;;;;;16.45;11.18;;;;;;;6.93;98.56;99509.66;5108785;28;20468;-70
2022/02/17 03:51:47;;;;;;;15.07;10.85;;;;;;;6.94;98.51;99503.34;5108799;28;20425;-68
2022/02/17 03:54:12;;;;;;;17.67;11.20;;;;;;;7.00;98.62;99488.66;5108457;28;20032;-68
2022/02/17 03:56:37;;;;;;;16.58;10.90;;;;;;;6.99;98.48;99490.47;5108228;28;20767;-69
2022/02/17 03:59:04;;;;;;;16.20;10.55;;;;;;;7.02;98.07;99483.19;5108541;28;20489;-70
2022/02/17 04:01:32;;;;;;;16.02;10.93;;;;;;;7.03;98.70;99475.91;5108382;28;20479;-70
2022/02/17 04:03:58;;;;;;;17.83;11.70;;;;;;;6.95;98.37;99473.06;5108651;28;20057;-69
2022/02/17 04:06:23;;;;;;;19.27;11.60;;;;;;;7.03;99.22;99475.91;5108292;28;20031;-69
2022/02/17 04:08:49;;;;;;;15.55;10.85;;;;;;;7.06;99.02;99460.63;5108349;28;20034;-70
2022/02/17 04:11:14;;;;;;;14.50;10.90;;;;;;;6.95;99.38;99457.06;5108139;28;20459;-68
2022/02/17 04:13:40;;;;;;;16.42;11.20;;;;;;;7.03;98.97;99456.38;5107850;28;20497;-69
2022/02/17 04:16:08;;;;;;;19.25;10.95;;;;;;;7.03;99.04;99448.38;5108193;28;20111;-69
2022/02/17 04:18:33;;;;;;;20.00;11.65;;;;;;;7.05;99.00;99457.09;5108203;28;20035;-69
2022/02/17 04:20:59;;;;;;;16.52;11.25;;;;;;;7.00;99.40;99451.34;5108530;28;20028;-69
2022/02/17 04:23:24;;;;;;;15.73;11.05;;;;;;;6.87;99.33;99413.41;5106765;28;20016;-68
2022/02/17 04:25:50;;;;;;;17.95;11.32;;;;;;;7.00;99.22;99433.50;5108065;28;20480;-69
2022/02/17 04:28:16;;;;;;;18.15;11.85;;;;;;;6.99;99.63;99413.19;5108029;28;20020;-69
2022/02/17 04:30:41;;;;;;;17.05;11.13;;;;;;;7.04;99.39;99405.59;5108160;28;20031;-69
2022/02/17 04:33:07;;;;;;;18.92;12.23;;;;;;;7.02;99.75;99385.41;5107686;28;20048;-70
2022/02/17 04:35:32;;;;;;;18.10;11.35;;;;;;;7.06;99.98;99396.66;5108147;28;20036;-69
2022/02/17 04:37:58;;;;;;;18.55;12.10;;;;;;;7.10;100.00;99400.72;5108269;28;20032;-70
2022/02/17 04:42:18;;;;;;;17.38;11.88;;;;;;;7.15;100.00;99398.50;5111899;28;20035;-68
2022/02/17 04:43:09;;;;;;;17.20;11.10;;;;;;;7.16;99.75;99403.66;5115712;28;20077;-77
2022/02/17 04:45:35;;;;;;;17.40;11.05;;;;;;;7.19;99.58;99414.06;5116593;28;20429;-79
2022/02/17 04:48:05;;;;;;;18.20;12.07;;;;;;;7.28;98.92;99417.78;5116540;27;20032;-78
2022/02/17 04:50:31;;;;;;;21.83;11.90;;;;;;;7.24;99.25;99406.53;5113859;28;20032;-76
2022/02/17 04:52:56;;;;;;;15.23;10.75;;;;;;;7.18;99.08;99398.19;5116144;28;20518;-77
2022/02/17 04:55:22;;;;;;;18.88;11.55;;;;;;;7.16;99.85;99384.19;5116276;28;20026;-77
2022/02/17 04:57:47;;;;;;;15.40;10.88;;;;;;;7.15;99.34;99393.16;5116250;28;20027;-77
2022/02/17 05:00:13;;;;;;;16.95;11.07;;;;;;;7.20;99.00;99407.78;5116006;28;20386;-77
2022/02/17 05:02:39;;;;;;;15.52;9.90;;;;;;;7.20;98.95;99412.25;5116157;28;20024;-77
2022/02/17 05:05:04;;;;;;;20.90;11.27;;;;;;;7.23;98.38;99418.19;5115995;28;20076;-77
2022/02/17 05:07:30;;;;;;;19.80;11.40;;;;;;;7.22;98.58;99415.66;5115818;27;20050;-77
2022/02/17 05:09:56;;;;;;;15.43;10.63;;;;;;;7.20;98.89;99409.59;5115985;28;20467;-77
2022/02/17 05:12:21;;;;;;;15.80;10.40;;;;;;;7.21;98.73;99403.28;5114356;28;20031;-76
2022/02/17 05:14:47;;;;;;;16.23;10.90;;;;;;;7.23;99.08;99401.31;5114296;28;20031;-76
2022/02/17 05:17:15;;;;;;;18.02;10.52;;;;;;;7.15;98.96;99394.00;5115722;28;20020;-78
2022/02/17 05:19:41;;;;;;;13.95;9.90;;;;;;;7.17;98.11;99388.53;5115034;28;20104;-75
2022/02/17 05:22:06;;;;;;;17.98;10.15;;;;;;;7.23;98.63;99396.00;5114785;28;20047;-76
2022/02/17 05:24:32;;;;;;;13.90;9.75;;;;;;;7.24;98.58;99392.34;5114873;28;20069;-75
2022/02/17 05:26:57;;;;;;;14.68;10.38;;;;;;;7.22;97.71;99381.81;5112974;28;20417;-73
2022/02/17 05:29:22;;;;;;;15.43;9.10;;;;;;;7.25;97.57;99386.03;5112293;28;20075;-75
2022/02/17 05:31:48;;;;;;;13.05;9.02;;;;;;;7.26;97.25;99396.56;5111859;28;20084;-74
2022/02/17 05:34:14;;;;;;;11.77;7.72;;;;;;;7.29;95.87;99368.78;5113908;28;20042;-76
2022/02/17 05:36:40;;;;;;;11.23;8.02;;;;;;;7.39;95.25;99372.31;5113388;28;20520;-75
2022/02/17 05:39:07;;;;;;;13.00;7.88;;;;;;;7.44;94.73;99375.38;5115425;28;20042;-79
2022/02/17 05:41:32;;;;;;;11.00;7.43;;;;;;;7.43;94.83;99363.03;5113755;28;20015;-76
2022/02/17 05:43:58;;;;;;;10.57;7.30;;;;;;;7.52;94.08;99365.75;5114658;28;20055;-75
2022/02/17 05:46:24;;;;;;;9.90;7.40;;;;;;;7.63;94.15;99362.06;5114508;28;20034;-75
2022/02/17 05:48:49;;;;;;;20.50;8.07;;;;;;;7.63;93.72;99346.06;5113725;28;20027;-77
2022/02/17 05:51:17;;;;;;;11.15;8.02;;;;;;;7.54;95.55;99338.94;5111563;28;20016;-76
2022/02/17 05:53:43;;;;;;;12.40;8.02;;;;;;;7.66;96.42;99364.47;5111277;28;20023;-77
2022/02/17 05:56:09;;;;;;;11.18;7.90;;;;;;;7.67;96.78;99356.31;5115524;28;20031;-76
2022/02/17 05:58:34;;;;;;;11.55;8.13;;;;;;;7.66;97.30;99357.31;5115163;28;20019;-77
2022/02/17 06:01:00;;;;;;;13.23;8.27;;;;;;;7.56;98.68;99353.81;5115687;28;20027;-76
2022/02/17 06:03:27;;;;;;;14.18;8.50;;;;;;;7.64;98.46;99353.09;5116063;28;20031;-77
2022/02/17 06:05:52;;;;;;;17.02;9.70;;;;;;;7.63;99.92;99343.41;5114187;28;20036;-77
2022/02/17 06:08:18;;;;;;;14.38;9.43;;;;;;;7.63;100.00;99341.59;5113498;28;20027;-78
2022/02/17 06:10:44;;;;;;;14.48;9.68;;;;;;;7.62;100.00;99334.56;5114912;28;20083;-76
2022/02/17 06:13:10;;;;;;;14.75;9.90;;;;;;;7.64;100.00;99331.75;5115451;27;20479;-76
2022/02/17 06:15:36;;;;;;;13.00;9.10;;;;;;;7.65;100.00;99323.63;5115680;28;20023;-76
2022/02/17 06:18:02;;;;;;;14.50;9.57;;;;;;;7.63;100.00;99309.56;5115268;28;20399;-76
2022/02/17 06:20:28;;;;;;;14.55;9.13;;;;;;;7.57;100.00;99282.59;5114381;28;20019;-76
2022/02/17 06:22:53;;;;;;;14.02;9.60;;;;;;;7.58;100.00;99278.97;5113201;28;20030;-75
2022/02/17 06:25:19;;;;;;;18.05;10.52;;;;;;;7.55;100.00;99271.22;5113663;28;20675;-75
2022/02/17 06:27:46;;;;;;;14.10;9.65;;;;;;;7.55;100.00;99261.41;5112818;28;20360;-74
2022/02/17 06:30:12;;;;;;;14.10;10.18;;;;;;;7.57;100.00;99239.91;5113021;28;20035;-76
2022/02/17 06:32:51;;;;;;;17.73;9.77;;;;;;;7.53;100.00;99214.50;5113265;28;20038;-75
2022/02/17 06:35:19;;;;;;;16.58;10.30;;;;;;;7.55;100.00;99208.06;5111284;28;20032;-76
2022/02/17 06:37:45;;;;;;;14.90;9.85;;;;;;;7.47;100.00;99202.59;5110402;27;20114;-77
2022/02/17 06:40:11;;;;;;;16.65;10.63;;;;;;;7.46;100.00;99210.72;5111643;28;20102;-75
2022/02/17 06:42:37;;;;;;;14.65;10.13;;;;;;;7.53;100.00;99235.84;5109280;28;20043;-75
2022/02/17 06:45:03;;;;;;;13.05;9.25;;;;;;;7.51;100.00;99246.66;5110277;28;20019;-75
2022/02/17 06:47:28;;;;;;;15.95;10.80;;;;;;;7.57;100.00;99255.91;5111100;28;20027;-75
2022/02/17 06:49:54;;;;;;;16.35;10.85;;;;;;;7.63;100.00;99260.69;5110739;28;20035;-76
2022/02/17 06:52:20;;;;;;;15.77;10.30;;;;;;;7.60;100.00;99276.97;5109995;28;20024;-75
2022/02/17 06:54:45;;;;;;;14.90;9.27;;;;;;;7.49;100.00;99256.66;5111042;28;20074;-74
2022/02/17 06:57:11;;;;;;;17.40;9.98;;;;;;;7.61;99.69;99276.00;5111165;28;20467;-75
2022/02/17 06:59:36;;;;;;;14.88;9.82;;;;;;;7.62;99.89;99267.88;5111575;28;20024;-75
2022/02/17 07:02:02;;;;;;;14.02;10.13;;;;;;;7.68;99.03;99269.97;5110526;28;20023;-75
2022/02/17 07:04:27;;;;;;;14.27;10.40;;;;;;;7.64;99.12;99267.72;5110609;28;20806;-75
2022/02/17 07:06:53;;;;;;;13.60;9.70;;;;;;;7.65;99.82;99299.59;5111310;28;20027;-75
2022/02/17 07:09:19;;;;;;;15.93;10.88;;;;;;;7.67;99.01;99278.13;5111747;28;20414;-75
2022/02/17 07:11:44;;;;;;;17.13;10.65;;;;;;;7.71;98.89;99260.84;5111234;28;20030;-74
2022/02/17 07:14:11;;;;;;;16.45;10.77;;;;;;;7.67;99.12;99254.09;5110437;28;20031;-75
2022/02/17 07:16:36;;;;;;;12.80;9.65;;;;;;;7.72;99.73;99263.34;5110824;28;20489;-76
2022/02/17 07:19:02;;;;;;;15.82;10.18;;;;;;;7.77;99.65;99274.44;5110631;28;20168;-76
2022/02/17 07:21:27;;;;;;;18.63;10.55;;;;;;;7.76;99.00;99259.41;5110325;28;20019;-76
2022/02/17 07:23:53;;;;;;;16.33;10.45;;;;;;;7.87;98.40;99261.91;5110334;28;20020;-76
2022/02/17 07:26:18;;;;;;;15.95;11.15;;;;;;;7.79;98.81;99227.09;5110302;28;20058;-75
2022/02/17 07:28:44;;;;;;;16.05;10.60;;;;;;;7.99;97.82;99270.59;5110191;28;20497;-76
2022/02/17 07:31:12;;;;;;;15.93;10.35;;;;;;;8.00;97.74;99277.63;5110364;28;20031;-75
2022/02/17 07:33:37;;;;;;;16.75;11.60;;;;;;;8.07;96.63;99286.75;5109213;28;20035;-75
2022/02/17 07:36:04;;;;;;;16.77;9.90;;;;;;;8.11;96.39;99294.34;5110266;28;20030;-76
2022/02/17 07:38:29;;;;;;;13.40;9.57;;;;;;;8.10;96.02;99283.81;5109937;28;20019;-76
2022/02/17 07:40:55;;;;;;;19.48;10.43;;;;;;;8.11;96.28;99297.00;5109939;28;20031;-76
2022/02/17 07:43:20;;;;;;;16.05;10.23;;;;;;;8.15;96.27;99301.06;5108586;28;20048;-76
2022/02/17 07:45:46;;;;;;;16.77;10.65;;;;;;;8.24;95.87;99300.25;5109726;28;20110;-76
2022/02/17 07:48:11;;;;;;;16.38;10.75;;;;;;;8.24;95.34;99289.56;5109968;28;20043;-77
2022/02/17 07:50:37;;;;;;;13.85;10.27;;;;;;;8.23;95.34;99276.34;5110069;28;20053;-76
2022/02/17 07:53:02;;;;;;;14.95;9.55;;;;;;;8.22;94.98;99266.66;5109709;28;20028;-76
2022/02/17 07:55:28;;;;;;;18.00;10.32;;;;;;;8.26;95.25;99268.88;5109479;28;20024;-77
2022/02/17 07:58:00;;;;;;;13.52;9.75;;;;;;;8.30;94.39;99282.78;5109997;28;20375;-76
2022/02/17 08:00:25;;;;;;;14.90;9.45;;;;;;;8.23;94.18;99271.84;5109823;28;20055;-78
2022/02/17 08:02:51;;;;;;;11.80;8.80;;;;;;;8.30;92.92;99270.28;5110181;28;20956;-77
2022/02/17 08:05:16;;;;;;;14.40;8.52;;;;;;;8.30;92.12;99250.72;5110194;28;20097;-77
2022/02/17 08:07:42;;;;;;;11.57;7.93;;;;;;;8.31;91.27;99220.34;5110207;28;20028;-77
2022/02/17 08:10:08;;;;;;;11.00;7.30;;;;;;;8.28;89.71;99220.63;5110314;28;20027;-78
2022/02/17 08:12:39;;;;;;;12.95;7.35;;;;;;;8.32;89.04;99217.53;5110070;28;20027;-78
2022/02/17 08:15:05;;;;;;;10.80;6.90;;;;;;;8.43;87.11;99208.50;5113746;28;20020;-77
2022/02/17 08:17:30;;;;;;;8.55;6.22;;;;;;;8.46;87.17;99197.50;5114060;28;20440;-77
2022/02/17 08:19:55;;;;;;;9.07;6.40;;;;;;;8.50;86.47;99201.56;5113983;28;20068;-78
2022/02/17 08:22:21;;;;;;;9.75;6.78;;;;;;;8.53;86.50;99204.78;5114892;28;20024;-77
2022/02/17 08:24:46;;;;;;;9.48;6.90;;;;;;;8.62;83.68;99197.72;5112557;27;20123;-70
2022/02/17 08:27:12;;;;;;;10.45;6.45;;;;;;;8.71;83.46;99196.81;5110833;28;20035;-69
2022/02/17 08:29:38;;;;;;;10.13;6.03;;;;;;;8.76;81.42;99187.34;5112374;28;20376;-70
2022/02/17 08:32:03;;;;;;;9.57;5.90;;;;;;;8.72;80.93;99163.75;5112136;28;20024;-70
2022/02/17 08:34:29;;;;;;;8.25;5.82;;;;;;;8.79;80.92;99160.31;5109667;28;20161;-69
2022/02/17 08:36:54;;;;;;;8.15;5.90;;;;;;;8.85;79.88;99142.81;5112286;28;20023;-68
2022/02/17 08:39:20;;;;;;;9.60;5.50;;;;;;;8.88;78.11;99119.31;5112043;28;20031;-69
2022/02/17 08:41:45;;;;;;;13.23;6.40;;;;;;;9.00;77.95;99126.06;5112378;28;20027;-70
2022/02/17 08:44:11;;;;;;;9.45;5.78;;;;;;;9.09;77.47;99143.03;5112167;28;20050;-70
2022/02/17 08:46:37;;;;;;;9.80;5.78;;;;;;;9.19;75.74;99141.09;5112300;28;20110;-69
2022/02/17 08:49:03;;;;;;;8.20;5.72;;;;;;;9.32;73.80;99128.16;5112126;27;20426;-70
2022/02/17 08:51:29;;;;;;;9.98;5.63;;;;;;;9.39;74.24;99131.94;5112242;28;20066;-70
2022/02/17 08:53:58;;;;;;;7.72;5.07;;;;;;;9.58;71.06;99141.59;5111895;28;20023;-70
2022/02/17 08:56:25;;;;;;;8.65;4.88;;;;;;;9.63;71.81;99155.31;5111866;28;20061;-70
2022/02/17 08:58:50;;;;;;;8.68;4.50;;;;;;;9.73;70.57;99143.53;5111716;28;20059;-69
2022/02/17 09:01:16;;;;;;;5.28;4.03;;;;;;;9.81;69.94;99150.78;5111845;28;20059;-69
2022/02/17 09:03:42;;;;;;;6.30;4.60;;;;;;;9.77;70.12;99126.13;5110432;28;20039;-70
2022/02/17 09:06:08;;;;;;;10.57;4.78;;;;;;;9.83;69.42;99111.31;5112084;28;20145;-70
2022/02/17 09:08:33;;;;;;;8.13;4.97;;;;;;;9.90;69.25;99123.88;5111572;28;20031;-70
2022/02/17 09:10:59;;;;;;;7.07;4.53;;;;;;;9.95;69.78;99115.34;5111850;28;20053;-70
2022/02/17 09:13:24;;;;;;;9.30;4.65;;;;;;;10.10;68.08;99121.84;5111353;28;20076;-69
2022/02/17 09:15:51;;;;;;;5.38;4.28;;;;;;;10.07;67.31;99100.72;5111741;28;20034;-69
2022/02/17 09:18:16;;;;;;;8.10;5.28;;;;;;;10.17;67.68;99099.59;5111810;28;20488;-69
2022/02/17 09:20:42;;;;;;;8.85;4.75;;;;;;;10.25;64.94;99075.50;5111522;28;20099;-69
2022/02/17 09:23:08;;;;;;;8.18;3.83;;;;;;;10.41;64.59;99078.22;5109743;28;20126;-69
2022/02/17 09:25:36;;;;;;;3.83;3.00;;;;;;;10.48;63.80;99087.28;5111251;28;20092;-70
2022/02/17 09:28:04;;;;;;;5.43;3.42;;;;;;;10.46;63.14;99061.66;5110905;28;20019;-69
2022/02/17 09:30:30;;;;;;;5.65;3.78;;;;;;;10.44;62.92;99064.50;5110928;28;20039;-68
2022/02/17 09:32:55;;;;;;;6.38;3.72;;;;;;;10.46;63.58;99064.34;5110986;28;20082;-70
2022/02/17 09:35:21;;;;;;;5.10;3.55;;;;;;;10.53;62.85;99052.81;5109506;28;20035;-68
2022/02/17 09:37:46;;;;;;;4.57;3.60;;;;;;;10.66;63.04;99058.50;5110839;28;20131;-69
2022/02/17 09:40:12;;;;;;;5.57;3.40;;;;;;;10.86;62.54;99053.66;5111388;27;20024;-70
2022/02/17 09:42:38;;;;;;;6.38;3.95;;;;;;;10.93;61.85;99046.63;5110633;28;20486;-69
2022/02/17 09:45:09;;;;;;;7.38;3.63;;;;;;;11.11;61.67;99058.88;5110996;28;20102;-69
2022/02/17 09:47:37;;;;;;;7.78;3.40;;;;;;;11.29;60.44;99043.41;5110849;28;20027;-70
2022/02/17 09:50:05;;;;;;;5.63;3.40;;;;;;;11.45;59.91;99037.19;5109355;28;20556;-70
2022/02/17 09:52:32;;;;;;;6.18;3.25;;;;;;;11.70;57.79;99027.25;5110797;28;20390;-70
2022/02/17 09:54:58;;;;;;;5.60;3.13;;;;;;;11.98;57.16;99039.19;5110773;28;20035;-70
2022/02/17 09:57:24;;;;;;;5.15;2.75;;;;;;;12.32;56.53;99026.28;5110748;28;20027;-70
2022/02/17 09:59:49;;;;;;;4.32;3.08;;;;;;;12.99;53.30;99025.44;5110348;28;20023;-69
2022/02/17 10:02:26;;;;;;;3.78;2.75;;;;;;;13.99;51.30;98996.06;5110654;28;20036;-70
2022/02/17 10:04:56;;;;;;;5.50;2.85;;;;;;;15.55;46.83;99003.03;5110372;28;20039;-69
2022/02/17 10:07:31;;;;;;;3.55;2.45;;;;;;;17.42;43.04;98977.75;5110607;28;20032;-69
2022/02/17 10:10:19;;;;;;;3.13;2.15;;;;;;;19.28;38.76;98953.63;5109065;28;20141;-69
2022/02/17 10:12:55;;;;;;;3.40;2.33;;;;;;;20.53;35.76;98953.88;5108156;28;20042;-70
2022/02/17 10:15:29;;;;;;;4.25;2.50;;;;;;;21.68;33.77;98942.31;5110131;28;20118;-70
2022/02/17 10:18:07;;;;;;;;;;;;;;;21.88;33.42;98934.59;5110299;27;20035;-70
2022/02/17 10:20:53;;;;;;;2.85;2.10;;;;;;;21.24;33.53;98942.91;5108209;28;19918;-69
2022/02/17 10:23:20;;;;;;;3.25;2.20;;;;;;;21.37;33.33;98924.41;5110074;28;20348;-70
2022/02/17 10:26:30;;;;;;;6.70;2.50;;;;;;;20.85;34.20;98924.44;5109911;28;20062;-69
2022/02/17 10:28:59;;;;;;;2.90;2.45;;;;;;;19.84;35.53;98921.69;5113734;28;20036;-78
2022/02/17 10:31:27;;;;;;;3.53;2.45;;;;;;;19.70;36.19;98922.06;5115769;28;20028;-77
2022/02/17 10:33:54;;;;;;;5.45;2.80;;;;;;;19.27;37.22;98919.38;5113837;28;20559;-76
2022/02/17 10:36:44;;;;;;;3.78;2.97;;;;;;;18.44;38.10;98910.84;5113727;27;20049;-77
2022/02/17 10:39:22;;;;;;;7.07;2.90;;;;;;;17.53;39.98;98915.59;5112119;28;20394;-78
2022/02/17 10:41:58;;;;;;;5.20;3.00;;;;;;;17.44;40.35;98911.47;5113029;28;20027;-78
2022/02/17 10:44:31;;;;;;;3.33;2.63;;;;;;;16.97;41.42;98891.91;5111569;28;20114;-77
2022/02/17 10:47:09;;;;;;;7.53;2.70;;;;;;;16.60;42.11;98898.78;5112193;28;20028;-70
2022/02/17 10:49:40;;;;;;;3.95;2.60;;;;;;;16.03;43.16;98901.19;5109310;28;20436;-69
2022/02/17 10:52:05;;;;;;;4.72;2.75;;;;;;;15.49;44.28;98866.03;5109382;28;20027;-69
2022/02/17 10:54:31;;;;;;;5.82;2.83;;;;;;;15.14;45.58;98872.47;5109217;28;20020;-69
2022/02/17 10:57:03;;;;;;;4.10;3.03;;;;;;;14.79;46.44;98861.84;5107866;28;20531;-70
2022/02/17 11:02:20;;;;;;;4.93;2.00;;;;;;;14.48;45.73;98864.09;5107660;28;20062;-70
2022/02/17 11:04:46;;;;;;;7.07;2.25;;;;;;;14.24;45.96;98859.94;5109589;28;20184;-68
2022/02/17 11:07:12;;;;;;;6.30;1.60;;;;;;;14.11;46.02;98859.78;5107850;28;20110;-70
2022/02/17 11:09:40;;;;;;;5.40;2.20;;;;;;;13.95;46.04;98841.16;5109072;28;20359;-70
2022/02/17 11:12:06;;;;;;;6.97;1.98;;;;;;;13.94;46.39;98852.13;5109065;28;20023;-69
2022/02/17 11:14:37;;;;;;;5.88;2.10;;;;;;;13.89;46.37;98836.53;5108912;28;20104;-68
2022/02/17 11:17:04;;;;;;;4.60;2.05;;;;;;;13.65;47.14;98823.44;5106589;28;20116;-68
2022/02/17 11:19:31;;;;;;;4.18;1.90;;;;;;;13.60;47.58;98829.38;5109121;28;20389;-69
2022/02/17 11:21:56;;;;;;;5.03;2.05;;;;;;;13.55;48.24;98839.06;5108879;28;20420;-69
2022/02/17 11:24:22;;;;;;;4.90;2.08;;;;;;;13.62;47.26;98813.03;5107477;28;20106;-69
2022/02/17 11:27:01;;;;;;;11.35;2.20;;;;;;;13.46;48.18;98807.88;5107540;28;20034;-68
2022/02/17 11:29:30;;;;;;;7.18;2.10;;;;;;;13.54;47.79;98803.19;5108809;28;20084;-70